sensor_id;sensor_type;location;lat;lon;timestamp;temperature;humidity
6357;DHT22;3211;53.452;-2.264;2023-02-27T00:02:11;6.90;79.40
6357;DHT22;3211;53.452;-2.264;2023-02-27T00:04:38;6.80;77.70
6357;DHT22;3211;53.452;-2.264;2023-02-27T00:07:05;6.70;80.90
6357;DHT22;3211;53.452;-2.264;2023-02-27T00:09:35;6.60;80.20
6357;DHT22;3211;53.452;-2.264;2023-02-27T00:12:02;6.60;82.20
6357;DHT22;3211;53.452;-2.264;2023-02-27T00:14:29;6.60;82.70
6357;DHT22;3211;53.452;-2.264;2023-02-27T00:16:56;6.50;82.90
6357;DHT22;3211;53.452;-2.264;2023-02-27T00:19:23;6.40;85.80
6357;DHT22;3211;53.452;-2.264;2023-02-27T00:21:50;6.40;87.90
6357;DHT22;3211;53.452;-2.264;2023-02-27T00:24:17;6.50;86.90
6357;DHT22;3211;53.452;-2.264;2023-02-27T00:26:46;6.50;87.00
6357;DHT22;3211;53.452;-2.264;2023-02-27T00:29:13;6.50;88.60
6357;DHT22;3211;53.452;-2.264;2023-02-27T00:31:40;6.50;90.00
6357;DHT22;3211;53.452;-2.264;2023-02-27T00:34:07;6.60;90.70
6357;DHT22;3211;53.452;-2.264;2023-02-27T00:36:33;6.60;91.90
6357;DHT22;3211;53.452;-2.264;2023-02-27T00:39:00;6.50;92.10
6357;DHT22;3211;53.452;-2.264;2023-02-27T00:41:27;6.40;92.90
6357;DHT22;3211;53.452;-2.264;2023-02-27T00:43:56;6.40;94.10
6357;DHT22;3211;53.452;-2.264;2023-02-27T00:46:22;6.50;95.60
6357;DHT22;3211;53.452;-2.264;2023-02-27T00:48:49;6.50;93.70
6357;DHT22;3211;53.452;-2.264;2023-02-27T00:51:16;6.60;94.60
6357;DHT22;3211;53.452;-2.264;2023-02-27T00:53:44;6.50;95.40
6357;DHT22;3211;53.452;-2.264;2023-02-27T00:56:11;6.50;94.60
6357;DHT22;3211;53.452;-2.264;2023-02-27T00:58:38;6.50;95.30
6357;DHT22;3211;53.452;-2.264;2023-02-27T01:01:07;6.50;94.80
6357;DHT22;3211;53.452;-2.264;2023-02-27T01:03:33;6.50;95.60
6357;DHT22;3211;53.452;-2.264;2023-02-27T01:06:00;6.60;95.80
6357;DHT22;3211;53.452;-2.264;2023-02-27T01:08:27;6.60;94.70
6357;DHT22;3211;53.452;-2.264;2023-02-27T01:10:55;6.50;94.90
6357;DHT22;3211;53.452;-2.264;2023-02-27T01:13:22;6.40;94.90
6357;DHT22;3211;53.452;-2.264;2023-02-27T01:15:49;6.50;97.00
6357;DHT22;3211;53.452;-2.264;2023-02-27T01:18:17;6.40;97.00
6357;DHT22;3211;53.452;-2.264;2023-02-27T01:20:44;6.40;97.20
6357;DHT22;3211;53.452;-2.264;2023-02-27T01:23:11;6.40;97.80
6357;DHT22;3211;53.452;-2.264;2023-02-27T01:25:38;6.40;98.10
6357;DHT22;3211;53.452;-2.264;2023-02-27T01:28:05;6.40;98.40
6357;DHT22;3211;53.452;-2.264;2023-02-27T01:30:33;6.50;96.80
6357;DHT22;3211;53.452;-2.264;2023-02-27T01:33:00;6.50;96.30
6357;DHT22;3211;53.452;-2.264;2023-02-27T01:35:28;6.40;95.70
6357;DHT22;3211;53.452;-2.264;2023-02-27T01:37:55;6.40;95.30
6357;DHT22;3211;53.452;-2.264;2023-02-27T01:40:22;6.50;97.00
6357;DHT22;3211;53.452;-2.264;2023-02-27T01:42:49;6.40;94.00
6357;DHT22;3211;53.452;-2.264;2023-02-27T01:45:31;6.40;96.70
6357;DHT22;3211;53.452;-2.264;2023-02-27T01:48:05;6.40;96.10
6357;DHT22;3211;53.452;-2.264;2023-02-27T01:50:38;6.40;94.40
6357;DHT22;3211;53.452;-2.264;2023-02-27T01:53:07;6.30;95.20
6357;DHT22;3211;53.452;-2.264;2023-02-27T01:55:37;6.40;94.40
6357;DHT22;3211;53.452;-2.264;2023-02-27T01:58:09;6.20;92.40
6357;DHT22;3211;53.452;-2.264;2023-02-27T02:00:37;6.10;94.70
6357;DHT22;3211;53.452;-2.264;2023-02-27T02:03:11;6.10;96.30
6357;DHT22;3211;53.452;-2.264;2023-02-27T02:05:41;6.00;95.20
6357;DHT22;3211;53.452;-2.264;2023-02-27T02:08:10;6.00;94.50
6357;DHT22;3211;53.452;-2.264;2023-02-27T02:10:40;5.90;94.80
6357;DHT22;3211;53.452;-2.264;2023-02-27T02:13:08;6.10;95.90
6357;DHT22;3211;53.452;-2.264;2023-02-27T02:15:37;6.10;95.60
6357;DHT22;3211;53.452;-2.264;2023-02-27T02:18:17;6.10;93.20
6357;DHT22;3211;53.452;-2.264;2023-02-27T02:27:10;6.10;92.50
6357;DHT22;3211;53.452;-2.264;2023-02-27T02:33:11;6.00;92.70
6357;DHT22;3211;53.452;-2.264;2023-02-27T02:41:55;5.90;93.80
6357;DHT22;3211;53.452;-2.264;2023-02-27T02:44:31;5.80;92.40
6357;DHT22;3211;53.452;-2.264;2023-02-27T02:47:05;5.80;93.20
6357;DHT22;3211;53.452;-2.264;2023-02-27T02:49:42;5.90;93.70
6357;DHT22;3211;53.452;-2.264;2023-02-27T02:52:18;5.80;93.10
6357;DHT22;3211;53.452;-2.264;2023-02-27T02:54:51;5.80;93.30
6357;DHT22;3211;53.452;-2.264;2023-02-27T02:57:26;5.70;94.70
6357;DHT22;3211;53.452;-2.264;2023-02-27T02:59:59;5.50;97.70
6357;DHT22;3211;53.452;-2.264;2023-02-27T03:02:33;5.50;98.50
6357;DHT22;3211;53.452;-2.264;2023-02-27T03:05:05;5.50;99.90
6357;DHT22;3211;53.452;-2.264;2023-02-27T03:07:39;5.50;99.90
6357;DHT22;3211;53.452;-2.264;2023-02-27T03:10:10;5.50;99.90
6357;DHT22;3211;53.452;-2.264;2023-02-27T03:12:44;5.50;99.90
6357;DHT22;3211;53.452;-2.264;2023-02-27T03:15:16;5.40;99.90
6357;DHT22;3211;53.452;-2.264;2023-02-27T03:17:46;5.50;99.90
6357;DHT22;3211;53.452;-2.264;2023-02-27T03:20:19;5.50;99.90
6357;DHT22;3211;53.452;-2.264;2023-02-27T03:22:53;5.50;99.90
6357;DHT22;3211;53.452;-2.264;2023-02-27T03:25:22;5.60;99.90
6357;DHT22;3211;53.452;-2.264;2023-02-27T03:27:54;5.60;99.90
6357;DHT22;3211;53.452;-2.264;2023-02-27T03:30:26;5.70;99.90
6357;DHT22;3211;53.452;-2.264;2023-02-27T03:32:59;5.60;99.90
6357;DHT22;3211;53.452;-2.264;2023-02-27T03:35:33;5.60;99.90
6357;DHT22;3211;53.452;-2.264;2023-02-27T03:38:10;5.60;99.90
6357;DHT22;3211;53.452;-2.264;2023-02-27T03:40:47;5.60;99.90
6357;DHT22;3211;53.452;-2.264;2023-02-27T03:43:26;5.70;99.90
6357;DHT22;3211;53.452;-2.264;2023-02-27T03:45:58;5.70;99.90
6357;DHT22;3211;53.452;-2.264;2023-02-27T03:48:27;5.70;99.90
6357;DHT22;3211;53.452;-2.264;2023-02-27T03:50:54;5.70;99.90
6357;DHT22;3211;53.452;-2.264;2023-02-27T03:53:27;5.70;99.90
6357;DHT22;3211;53.452;-2.264;2023-02-27T03:55:57;5.70;99.90
6357;DHT22;3211;53.452;-2.264;2023-02-27T03:58:26;5.80;99.90
6357;DHT22;3211;53.452;-2.264;2023-02-27T04:00:52;5.90;99.90
6357;DHT22;3211;53.452;-2.264;2023-02-27T04:03:20;5.80;99.90
6357;DHT22;3211;53.452;-2.264;2023-02-27T04:05:47;5.70;99.90
6357;DHT22;3211;53.452;-2.264;2023-02-27T04:08:38;5.70;99.90
6357;DHT22;3211;53.452;-2.264;2023-02-27T04:11:23;5.70;99.90
6357;DHT22;3211;53.452;-2.264;2023-02-27T04:14:08;5.70;99.90
6357;DHT22;3211;53.452;-2.264;2023-02-27T04:16:49;5.70;99.90
6357;DHT22;3211;53.452;-2.264;2023-02-27T04:19:31;5.70;99.90
6357;DHT22;3211;53.452;-2.264;2023-02-27T04:22:09;5.60;99.90
6357;DHT22;3211;53.452;-2.264;2023-02-27T04:24:46;5.60;99.90
6357;DHT22;3211;53.452;-2.264;2023-02-27T04:27:22;5.50;99.90
6357;DHT22;3211;53.452;-2.264;2023-02-27T04:29:54;5.50;99.90
6357;DHT22;3211;53.452;-2.264;2023-02-27T04:32:28;5.50;99.90
6357;DHT22;3211;53.452;-2.264;2023-02-27T04:34:59;5.60;99.90
6357;DHT22;3211;53.452;-2.264;2023-02-27T04:37:29;5.60;99.90
6357;DHT22;3211;53.452;-2.264;2023-02-27T04:40:00;5.60;99.90
6357;DHT22;3211;53.452;-2.264;2023-02-27T04:42:33;5.70;99.90
6357;DHT22;3211;53.452;-2.264;2023-02-27T04:45:05;5.60;99.90
6357;DHT22;3211;53.452;-2.264;2023-02-27T04:47:37;5.60;99.90
6357;DHT22;3211;53.452;-2.264;2023-02-27T04:50:09;5.50;99.90
6357;DHT22;3211;53.452;-2.264;2023-02-27T04:52:39;5.50;99.90
6357;DHT22;3211;53.452;-2.264;2023-02-27T04:55:12;5.50;99.90
6357;DHT22;3211;53.452;-2.264;2023-02-27T04:57:45;5.60;99.90
6357;DHT22;3211;53.452;-2.264;2023-02-27T05:00:18;5.60;99.90
6357;DHT22;3211;53.452;-2.264;2023-02-27T05:02:49;5.70;99.90
6357;DHT22;3211;53.452;-2.264;2023-02-27T05:05:19;5.70;99.90
6357;DHT22;3211;53.452;-2.264;2023-02-27T05:07:53;5.60;99.90
6357;DHT22;3211;53.452;-2.264;2023-02-27T05:10:28;5.50;99.90
6357;DHT22;3211;53.452;-2.264;2023-02-27T05:13:00;5.30;99.90
6357;DHT22;3211;53.452;-2.264;2023-02-27T05:15:32;5.40;99.90
6357;DHT22;3211;53.452;-2.264;2023-02-27T05:18:02;5.40;99.90
6357;DHT22;3211;53.452;-2.264;2023-02-27T05:20:34;5.50;99.90
6357;DHT22;3211;53.452;-2.264;2023-02-27T05:23:11;5.60;99.90
6357;DHT22;3211;53.452;-2.264;2023-02-27T05:25:44;5.50;99.90
6357;DHT22;3211;53.452;-2.264;2023-02-27T05:28:18;5.40;99.90
6357;DHT22;3211;53.452;-2.264;2023-02-27T05:30:51;5.30;99.90
6357;DHT22;3211;53.452;-2.264;2023-02-27T05:33:24;5.40;99.90
6357;DHT22;3211;53.452;-2.264;2023-02-27T05:36:02;5.40;99.90
6357;DHT22;3211;53.452;-2.264;2023-02-27T05:38:35;5.40;99.90
6357;DHT22;3211;53.452;-2.264;2023-02-27T05:41:07;5.40;99.90
6357;DHT22;3211;53.452;-2.264;2023-02-27T05:43:38;5.50;99.90
6357;DHT22;3211;53.452;-2.264;2023-02-27T05:46:12;5.50;99.90
6357;DHT22;3211;53.452;-2.264;2023-02-27T05:48:42;5.60;99.90
6357;DHT22;3211;53.452;-2.264;2023-02-27T05:51:13;5.60;99.90
6357;DHT22;3211;53.452;-2.264;2023-02-27T05:53:47;5.60;99.90
6357;DHT22;3211;53.452;-2.264;2023-02-27T05:56:17;5.50;99.90
6357;DHT22;3211;53.452;-2.264;2023-02-27T05:58:50;5.60;99.90
6357;DHT22;3211;53.452;-2.264;2023-02-27T06:01:22;5.60;99.90
6357;DHT22;3211;53.452;-2.264;2023-02-27T06:03:49;5.60;99.90
6357;DHT22;3211;53.452;-2.264;2023-02-27T06:06:18;5.60;99.90
6357;DHT22;3211;53.452;-2.264;2023-02-27T06:08:46;5.60;99.90
6357;DHT22;3211;53.452;-2.264;2023-02-27T06:11:13;5.60;99.90
6357;DHT22;3211;53.452;-2.264;2023-02-27T06:13:40;5.60;99.90
6357;DHT22;3211;53.452;-2.264;2023-02-27T06:16:08;5.60;99.90
6357;DHT22;3211;53.452;-2.264;2023-02-27T06:18:37;5.60;99.90
6357;DHT22;3211;53.452;-2.264;2023-02-27T06:21:04;5.70;99.90
6357;DHT22;3211;53.452;-2.264;2023-02-27T06:23:31;5.60;99.90
6357;DHT22;3211;53.452;-2.264;2023-02-27T06:25:58;5.60;99.90
6357;DHT22;3211;53.452;-2.264;2023-02-27T06:28:25;5.70;99.90
6357;DHT22;3211;53.452;-2.264;2023-02-27T06:30:53;5.60;99.90
6357;DHT22;3211;53.452;-2.264;2023-02-27T06:33:22;5.60;99.90
6357;DHT22;3211;53.452;-2.264;2023-02-27T06:35:51;5.50;99.90
6357;DHT22;3211;53.452;-2.264;2023-02-27T06:38:18;5.60;99.90
6357;DHT22;3211;53.452;-2.264;2023-02-27T06:40:45;5.60;99.90
6357;DHT22;3211;53.452;-2.264;2023-02-27T06:43:12;5.70;99.90
6357;DHT22;3211;53.452;-2.264;2023-02-27T06:45:39;5.50;99.90
6357;DHT22;3211;53.452;-2.264;2023-02-27T06:48:06;5.50;99.90
6357;DHT22;3211;53.452;-2.264;2023-02-27T06:50:34;5.60;99.90
6357;DHT22;3211;53.452;-2.264;2023-02-27T06:53:02;5.60;99.90
6357;DHT22;3211;53.452;-2.264;2023-02-27T06:55:29;5.70;99.90
6357;DHT22;3211;53.452;-2.264;2023-02-27T06:57:56;5.70;99.90
6357;DHT22;3211;53.452;-2.264;2023-02-27T07:00:23;5.60;99.90
6357;DHT22;3211;53.452;-2.264;2023-02-27T07:02:50;5.60;99.90
6357;DHT22;3211;53.452;-2.264;2023-02-27T07:05:17;5.70;99.90
6357;DHT22;3211;53.452;-2.264;2023-02-27T07:07:44;5.60;99.90
6357;DHT22;3211;53.452;-2.264;2023-02-27T07:10:13;5.70;99.90
6357;DHT22;3211;53.452;-2.264;2023-02-27T07:12:40;5.70;99.90
6357;DHT22;3211;53.452;-2.264;2023-02-27T07:15:08;5.80;99.90
6357;DHT22;3211;53.452;-2.264;2023-02-27T07:17:35;5.80;99.90
6357;DHT22;3211;53.452;-2.264;2023-02-27T07:20:04;5.70;99.90
6357;DHT22;3211;53.452;-2.264;2023-02-27T07:22:31;5.70;99.90
6357;DHT22;3211;53.452;-2.264;2023-02-27T07:24:58;5.70;99.90
6357;DHT22;3211;53.452;-2.264;2023-02-27T07:27:26;5.80;99.90
6357;DHT22;3211;53.452;-2.264;2023-02-27T07:29:53;5.70;99.90
6357;DHT22;3211;53.452;-2.264;2023-02-27T07:32:20;5.80;99.90
6357;DHT22;3211;53.452;-2.264;2023-02-27T07:34:47;5.80;99.90
6357;DHT22;3211;53.452;-2.264;2023-02-27T07:37:14;5.70;99.90
6357;DHT22;3211;53.452;-2.264;2023-02-27T07:39:41;5.80;99.90
6357;DHT22;3211;53.452;-2.264;2023-02-27T07:42:09;5.90;99.90
6357;DHT22;3211;53.452;-2.264;2023-02-27T07:44:37;5.80;99.90
6357;DHT22;3211;53.452;-2.264;2023-02-27T07:47:05;5.90;99.90
6357;DHT22;3211;53.452;-2.264;2023-02-27T07:49:32;5.90;99.90
6357;DHT22;3211;53.452;-2.264;2023-02-27T07:51:58;6.00;99.90
6357;DHT22;3211;53.452;-2.264;2023-02-27T07:54:25;6.00;99.90
6357;DHT22;3211;53.452;-2.264;2023-02-27T07:56:52;6.10;99.90
6357;DHT22;3211;53.452;-2.264;2023-02-27T07:59:19;6.10;99.90
6357;DHT22;3211;53.452;-2.264;2023-02-27T08:01:48;6.10;99.90
6357;DHT22;3211;53.452;-2.264;2023-02-27T08:04:15;6.10;99.90
6357;DHT22;3211;53.452;-2.264;2023-02-27T08:06:41;6.20;99.90
6357;DHT22;3211;53.452;-2.264;2023-02-27T08:09:09;6.20;99.90
6357;DHT22;3211;53.452;-2.264;2023-02-27T08:11:36;6.20;99.90
6357;DHT22;3211;53.452;-2.264;2023-02-27T08:14:03;6.20;99.90
6357;DHT22;3211;53.452;-2.264;2023-02-27T08:16:30;6.20;99.90
6357;DHT22;3211;53.452;-2.264;2023-02-27T08:18:59;6.20;99.80
6357;DHT22;3211;53.452;-2.264;2023-02-27T08:21:26;6.20;99.90
6357;DHT22;3211;53.452;-2.264;2023-02-27T08:23:53;6.30;99.90
6357;DHT22;3211;53.452;-2.264;2023-02-27T08:26:21;6.30;99.90
6357;DHT22;3211;53.452;-2.264;2023-02-27T08:28:48;6.30;99.90
6357;DHT22;3211;53.452;-2.264;2023-02-27T08:31:15;6.40;99.90
6357;DHT22;3211;53.452;-2.264;2023-02-27T08:33:42;6.40;99.90
6357;DHT22;3211;53.452;-2.264;2023-02-27T08:36:10;6.40;99.90
6357;DHT22;3211;53.452;-2.264;2023-02-27T08:38:37;6.50;99.90
6357;DHT22;3211;53.452;-2.264;2023-02-27T08:41:04;6.50;99.90
6357;DHT22;3211;53.452;-2.264;2023-02-27T08:43:31;6.60;99.90
6357;DHT22;3211;53.452;-2.264;2023-02-27T08:45:58;6.70;99.40
6357;DHT22;3211;53.452;-2.264;2023-02-27T08:48:25;6.70;99.70
6357;DHT22;3211;53.452;-2.264;2023-02-27T08:50:52;6.70;99.50
6357;DHT22;3211;53.452;-2.264;2023-02-27T08:53:20;6.80;99.40
6357;DHT22;3211;53.452;-2.264;2023-02-27T08:55:48;6.80;97.70
6357;DHT22;3211;53.452;-2.264;2023-02-27T08:58:16;6.70;97.50
6357;DHT22;3211;53.452;-2.264;2023-02-27T09:00:43;6.80;99.90
6357;DHT22;3211;53.452;-2.264;2023-02-27T09:03:10;6.80;99.60
6357;DHT22;3211;53.452;-2.264;2023-02-27T09:05:38;6.70;98.80
6357;DHT22;3211;53.452;-2.264;2023-02-27T09:08:05;6.70;99.70
6357;DHT22;3211;53.452;-2.264;2023-02-27T09:10:34;6.80;99.60
6357;DHT22;3211;53.452;-2.264;2023-02-27T09:13:01;6.80;99.40
6357;DHT22;3211;53.452;-2.264;2023-02-27T09:15:28;6.80;99.80
6357;DHT22;3211;53.452;-2.264;2023-02-27T09:17:58;6.80;99.70
6357;DHT22;3211;53.452;-2.264;2023-02-27T09:20:27;6.80;99.00
6357;DHT22;3211;53.452;-2.264;2023-02-27T09:22:57;6.70;99.50
6357;DHT22;3211;53.452;-2.264;2023-02-27T09:25:24;6.80;99.90
6357;DHT22;3211;53.452;-2.264;2023-02-27T09:27:53;6.80;97.80
6357;DHT22;3211;53.452;-2.264;2023-02-27T09:30:20;6.80;99.00
6357;DHT22;3211;53.452;-2.264;2023-02-27T09:32:47;6.80;98.60
6357;DHT22;3211;53.452;-2.264;2023-02-27T09:35:14;6.80;96.30
6357;DHT22;3211;53.452;-2.264;2023-02-27T09:37:41;6.90;97.90
6357;DHT22;3211;53.452;-2.264;2023-02-27T09:40:12;6.90;96.30
6357;DHT22;3211;53.452;-2.264;2023-02-27T09:42:45;7.00;96.00
6357;DHT22;3211;53.452;-2.264;2023-02-27T09:45:20;7.10;95.00
6357;DHT22;3211;53.452;-2.264;2023-02-27T09:47:52;7.10;93.70
6357;DHT22;3211;53.452;-2.264;2023-02-27T09:50:28;7.20;94.10
6357;DHT22;3211;53.452;-2.264;2023-02-27T09:52:55;7.30;93.50
6357;DHT22;3211;53.452;-2.264;2023-02-27T09:55:24;7.30;93.70
6357;DHT22;3211;53.452;-2.264;2023-02-27T09:57:59;7.40;93.30
6357;DHT22;3211;53.452;-2.264;2023-02-27T10:00:43;7.60;92.80
6357;DHT22;3211;53.452;-2.264;2023-02-27T10:03:22;7.60;92.10
6357;DHT22;3211;53.452;-2.264;2023-02-27T10:05:59;7.70;92.20
6357;DHT22;3211;53.452;-2.264;2023-02-27T10:08:36;7.60;87.50
6357;DHT22;3211;53.452;-2.264;2023-02-27T10:11:07;7.60;87.60
6357;DHT22;3211;53.452;-2.264;2023-02-27T10:13:48;7.40;83.70
6357;DHT22;3211;53.452;-2.264;2023-02-27T10:16:19;7.50;88.60
6357;DHT22;3211;53.452;-2.264;2023-02-27T10:18:52;7.40;90.30
6357;DHT22;3211;53.452;-2.264;2023-02-27T10:21:27;7.70;91.20
6357;DHT22;3211;53.452;-2.264;2023-02-27T10:23:58;7.70;87.10
6357;DHT22;3211;53.452;-2.264;2023-02-27T10:26:28;7.80;84.80
6357;DHT22;3211;53.452;-2.264;2023-02-27T10:28:56;7.80;82.80
6357;DHT22;3211;53.452;-2.264;2023-02-27T10:31:29;7.80;85.20
6357;DHT22;3211;53.452;-2.264;2023-02-27T10:33:57;7.80;84.00
6357;DHT22;3211;53.452;-2.264;2023-02-27T10:36:25;7.80;81.60
6357;DHT22;3211;53.452;-2.264;2023-02-27T10:38:55;7.90;79.30
6357;DHT22;3211;53.452;-2.264;2023-02-27T10:41:24;7.90;75.60
6357;DHT22;3211;53.452;-2.264;2023-02-27T10:43:56;8.00;75.80
6357;DHT22;3211;53.452;-2.264;2023-02-27T10:46:26;8.00;71.50
6357;DHT22;3211;53.452;-2.264;2023-02-27T10:48:54;7.80;72.70
6357;DHT22;3211;53.452;-2.264;2023-02-27T10:51:24;7.80;70.50
6357;DHT22;3211;53.452;-2.264;2023-02-27T10:54:12;8.00;75.20
6357;DHT22;3211;53.452;-2.264;2023-02-27T10:56:40;8.00;70.70
6357;DHT22;3211;53.452;-2.264;2023-02-27T10:59:17;8.20;65.50
6357;DHT22;3211;53.452;-2.264;2023-02-27T11:01:47;8.20;59.30
6357;DHT22;3211;53.452;-2.264;2023-02-27T11:04:24;8.40;55.90
6357;DHT22;3211;53.452;-2.264;2023-02-27T11:06:53;8.50;50.00
6357;DHT22;3211;53.452;-2.264;2023-02-27T11:09:22;8.60;53.90
6357;DHT22;3211;53.452;-2.264;2023-02-27T11:11:50;8.60;53.60
6357;DHT22;3211;53.452;-2.264;2023-02-27T11:14:26;8.40;51.00
6357;DHT22;3211;53.452;-2.264;2023-02-27T11:16:56;8.30;54.10
6357;DHT22;3211;53.452;-2.264;2023-02-27T11:19:30;8.10;56.90
6357;DHT22;3211;53.452;-2.264;2023-02-27T11:22:14;8.00;61.70
6357;DHT22;3211;53.452;-2.264;2023-02-27T11:24:41;8.10;60.80
6357;DHT22;3211;53.452;-2.264;2023-02-27T11:27:18;8.10;58.80
6357;DHT22;3211;53.452;-2.264;2023-02-27T11:29:55;8.20;62.20
6357;DHT22;3211;53.452;-2.264;2023-02-27T11:32:36;8.10;63.60
6357;DHT22;3211;53.452;-2.264;2023-02-27T11:35:20;8.00;63.50
6357;DHT22;3211;53.452;-2.264;2023-02-27T11:37:48;8.20;60.40
6357;DHT22;3211;53.452;-2.264;2023-02-27T11:40:18;8.20;56.80
6357;DHT22;3211;53.452;-2.264;2023-02-27T11:42:48;8.20;55.20
6357;DHT22;3211;53.452;-2.264;2023-02-27T11:45:28;8.30;57.00
6357;DHT22;3211;53.452;-2.264;2023-02-27T11:47:59;8.20;56.60
6357;DHT22;3211;53.452;-2.264;2023-02-27T11:50:52;8.20;55.50
6357;DHT22;3211;53.452;-2.264;2023-02-27T11:53:52;8.30;55.80
6357;DHT22;3211;53.452;-2.264;2023-02-27T11:56:28;8.50;57.50
6357;DHT22;3211;53.452;-2.264;2023-02-27T11:59:01;8.40;53.10
6357;DHT22;3211;53.452;-2.264;2023-02-27T12:01:46;8.60;51.50
6357;DHT22;3211;53.452;-2.264;2023-02-27T12:04:19;8.50;47.50
6357;DHT22;3211;53.452;-2.264;2023-02-27T12:06:51;8.50;50.80
6357;DHT22;3211;53.452;-2.264;2023-02-27T12:09:31;8.50;48.80
6357;DHT22;3211;53.452;-2.264;2023-02-27T12:12:00;8.60;48.30
6357;DHT22;3211;53.452;-2.264;2023-02-27T12:14:34;8.50;47.20
6357;DHT22;3211;53.452;-2.264;2023-02-27T12:17:11;8.30;57.80
6357;DHT22;3211;53.452;-2.264;2023-02-27T12:19:55;8.30;64.30
6357;DHT22;3211;53.452;-2.264;2023-02-27T12:22:27;8.30;67.60
6357;DHT22;3211;53.452;-2.264;2023-02-27T12:24:59;8.40;70.30
6357;DHT22;3211;53.452;-2.264;2023-02-27T12:27:36;8.60;67.20
6357;DHT22;3211;53.452;-2.264;2023-02-27T12:30:13;8.70;61.10
6357;DHT22;3211;53.452;-2.264;2023-02-27T12:32:43;8.90;66.00
6357;DHT22;3211;53.452;-2.264;2023-02-27T12:35:16;9.10;61.70
6357;DHT22;3211;53.452;-2.264;2023-02-27T12:37:44;9.10;47.20
6357;DHT22;3211;53.452;-2.264;2023-02-27T12:40:13;9.10;45.20
6357;DHT22;3211;53.452;-2.264;2023-02-27T12:43:04;9.00;46.00
6357;DHT22;3211;53.452;-2.264;2023-02-27T12:46:13;9.00;45.50
6357;DHT22;3211;53.452;-2.264;2023-02-27T12:48:55;9.00;40.40
6357;DHT22;3211;53.452;-2.264;2023-02-27T12:51:51;9.10;40.40
6357;DHT22;3211;53.452;-2.264;2023-02-27T12:54:35;9.10;41.50
6357;DHT22;3211;53.452;-2.264;2023-02-27T12:57:19;9.20;40.00
6357;DHT22;3211;53.452;-2.264;2023-02-27T13:00:01;9.10;38.60
6357;DHT22;3211;53.452;-2.264;2023-02-27T13:02:47;8.90;42.50
6357;DHT22;3211;53.452;-2.264;2023-02-27T13:05:38;8.90;43.30
6357;DHT22;3211;53.452;-2.264;2023-02-27T13:08:53;9.40;42.10
6357;DHT22;3211;53.452;-2.264;2023-02-27T13:11:30;9.90;32.90
6357;DHT22;3211;53.452;-2.264;2023-02-27T13:14:00;10.10;27.40
6357;DHT22;3211;53.452;-2.264;2023-02-27T13:16:30;10.10;25.90
6357;DHT22;3211;53.452;-2.264;2023-02-27T13:19:03;9.90;24.50
6357;DHT22;3211;53.452;-2.264;2023-02-27T13:21:35;9.70;25.00
6357;DHT22;3211;53.452;-2.264;2023-02-27T13:24:14;9.60;30.20
6357;DHT22;3211;53.452;-2.264;2023-02-27T13:26:46;9.50;32.30
6357;DHT22;3211;53.452;-2.264;2023-02-27T13:29:17;9.50;32.90
6357;DHT22;3211;53.452;-2.264;2023-02-27T13:31:48;9.60;34.00
6357;DHT22;3211;53.452;-2.264;2023-02-27T13:34:22;9.70;32.90
6357;DHT22;3211;53.452;-2.264;2023-02-27T13:36:55;9.70;33.60
6357;DHT22;3211;53.452;-2.264;2023-02-27T13:39:39;9.70;33.40
6357;DHT22;3211;53.452;-2.264;2023-02-27T13:42:55;9.70;33.40
6357;DHT22;3211;53.452;-2.264;2023-02-27T13:48:45;9.60;30.90
6357;DHT22;3211;53.452;-2.264;2023-02-27T13:51:41;10.20;34.00
6357;DHT22;3211;53.452;-2.264;2023-02-27T13:54:30;10.70;25.90
6357;DHT22;3211;53.452;-2.264;2023-02-27T13:57:18;11.10;22.40
6357;DHT22;3211;53.452;-2.264;2023-02-27T14:00:01;11.00;17.10
6357;DHT22;3211;53.452;-2.264;2023-02-27T14:02:49;10.90;17.90
6357;DHT22;3211;53.452;-2.264;2023-02-27T14:05:26;10.60;18.90
6357;DHT22;3211;53.452;-2.264;2023-02-27T14:08:01;10.70;19.10
6357;DHT22;3211;53.452;-2.264;2023-02-27T14:10:30;10.70;19.90
6357;DHT22;3211;53.452;-2.264;2023-02-27T14:12:58;10.60;22.60
6357;DHT22;3211;53.452;-2.264;2023-02-27T14:15:53;10.40;24.80
6357;DHT22;3211;53.452;-2.264;2023-02-27T14:18:53;10.00;22.40
6357;DHT22;3211;53.452;-2.264;2023-02-27T14:21:52;9.70;27.50
6357;DHT22;3211;53.452;-2.264;2023-02-27T14:24:24;9.80;29.80
6357;DHT22;3211;53.452;-2.264;2023-02-27T14:26:54;9.80;33.40
6357;DHT22;3211;53.452;-2.264;2023-02-27T14:29:25;9.80;33.70
6357;DHT22;3211;53.452;-2.264;2023-02-27T14:31:56;9.90;36.10
6357;DHT22;3211;53.452;-2.264;2023-02-27T14:34:25;9.90;29.50
6357;DHT22;3211;53.452;-2.264;2023-02-27T14:36:53;10.00;31.00
6357;DHT22;3211;53.452;-2.264;2023-02-27T14:39:24;10.10;25.60
6357;DHT22;3211;53.452;-2.264;2023-02-27T14:42:09;10.20;25.20
6357;DHT22;3211;53.452;-2.264;2023-02-27T14:44:46;10.20;22.80
6357;DHT22;3211;53.452;-2.264;2023-02-27T14:47:16;11.00;19.90
6357;DHT22;3211;53.452;-2.264;2023-02-27T14:49:45;11.50;16.10
6357;DHT22;3211;53.452;-2.264;2023-02-27T14:52:19;11.70;9.40
6357;DHT22;3211;53.452;-2.264;2023-02-27T14:54:46;11.60;13.10
6357;DHT22;3211;53.452;-2.264;2023-02-27T14:57:16;11.00;12.20
6357;DHT22;3211;53.452;-2.264;2023-02-27T14:59:46;10.80;18.30
6357;DHT22;3211;53.452;-2.264;2023-02-27T15:02:21;11.40;13.80
6357;DHT22;3211;53.452;-2.264;2023-02-27T15:04:53;12.40;7.70
6357;DHT22;3211;53.452;-2.264;2023-02-27T15:07:21;13.10;1.00
6357;DHT22;3211;53.452;-2.264;2023-02-27T15:09:53;12.80;1.00
6357;DHT22;3211;53.452;-2.264;2023-02-27T15:12:22;11.80;1.00
6357;DHT22;3211;53.452;-2.264;2023-02-27T15:14:52;11.80;2.80
6357;DHT22;3211;53.452;-2.264;2023-02-27T15:17:21;12.00;1.90
6357;DHT22;3211;53.452;-2.264;2023-02-27T15:19:51;11.60;3.00
6357;DHT22;3211;53.452;-2.264;2023-02-27T15:22:19;10.90;8.60
6357;DHT22;3211;53.452;-2.264;2023-02-27T15:24:48;10.70;12.40
6357;DHT22;3211;53.452;-2.264;2023-02-27T15:27:17;10.50;17.90
6357;DHT22;3211;53.452;-2.264;2023-02-27T15:29:49;10.30;18.20
6357;DHT22;3211;53.452;-2.264;2023-02-27T15:32:24;10.20;19.00
6357;DHT22;3211;53.452;-2.264;2023-02-27T15:34:52;10.20;20.80
6357;DHT22;3211;53.452;-2.264;2023-02-27T15:37:20;10.30;23.20
6357;DHT22;3211;53.452;-2.264;2023-02-27T15:39:49;10.10;23.00
6357;DHT22;3211;53.452;-2.264;2023-02-27T15:42:29;10.00;25.10
6357;DHT22;3211;53.452;-2.264;2023-02-27T15:44:57;9.90;28.60
6357;DHT22;3211;53.452;-2.264;2023-02-27T15:47:28;9.90;27.80
6357;DHT22;3211;53.452;-2.264;2023-02-27T15:49:59;10.10;28.60
6357;DHT22;3211;53.452;-2.264;2023-02-27T15:52:31;10.00;25.60
6357;DHT22;3211;53.452;-2.264;2023-02-27T15:55:01;10.00;24.10
6357;DHT22;3211;53.452;-2.264;2023-02-27T15:57:28;10.10;23.40
6357;DHT22;3211;53.452;-2.264;2023-02-27T15:59:56;10.20;23.60
6357;DHT22;3211;53.452;-2.264;2023-02-27T16:02:28;10.00;19.90
6357;DHT22;3211;53.452;-2.264;2023-02-27T16:04:56;9.80;21.20
6357;DHT22;3211;53.452;-2.264;2023-02-27T16:07:24;9.80;20.60
6357;DHT22;3211;53.452;-2.264;2023-02-27T16:09:54;9.80;20.00
6357;DHT22;3211;53.452;-2.264;2023-02-27T16:12:31;9.80;19.50
6357;DHT22;3211;53.452;-2.264;2023-02-27T16:15:25;9.80;22.90
6357;DHT22;3211;53.452;-2.264;2023-02-27T16:18:00;9.70;23.50
6357;DHT22;3211;53.452;-2.264;2023-02-27T16:20:32;9.70;25.80
6357;DHT22;3211;53.452;-2.264;2023-02-27T16:23:03;9.70;24.30
6357;DHT22;3211;53.452;-2.264;2023-02-27T16:25:30;9.70;25.20
6357;DHT22;3211;53.452;-2.264;2023-02-27T16:27:58;9.70;26.60
6357;DHT22;3211;53.452;-2.264;2023-02-27T16:30:25;9.70;27.30
6357;DHT22;3211;53.452;-2.264;2023-02-27T16:32:59;9.60;28.20
6357;DHT22;3211;53.452;-2.264;2023-02-27T16:35:27;9.60;28.30
6357;DHT22;3211;53.452;-2.264;2023-02-27T16:37:59;9.70;27.90
6357;DHT22;3211;53.452;-2.264;2023-02-27T16:40:27;9.50;31.10
6357;DHT22;3211;53.452;-2.264;2023-02-27T16:42:55;9.40;30.00
6357;DHT22;3211;53.452;-2.264;2023-02-27T16:45:23;9.30;29.60
6357;DHT22;3211;53.452;-2.264;2023-02-27T16:47:52;9.40;31.40
6357;DHT22;3211;53.452;-2.264;2023-02-27T16:50:24;9.40;30.10